Time;durP1;ratioP1;P1;durP2;ratioP2;P2;SDS_P1;SDS_P2;PMS_P1;PMS_P2;Temp;Humidity;BMP_temperature;BMP_pressure;BME280_temperature;BME280_humidity;BME280_pressure;Samples;Min_cycle;Max_cycle;Signal;HPM_P1;HPM_P2
2023/05/20 00:00:58;;;;;;;13.75;2.78;;;;;;;;;;5063007;28;20036;-75
2023/05/20 00:03:24;;;;;;;15.52;3.42;;;;;;;;;;5066682;28;20025;-75
2023/05/20 00:05:50;;;;;;;11.68;3.20;;;;;;;;;;5065994;28;20039;-76
2023/05/20 00:08:18;;;;;;;13.35;2.75;;;;;;;;;;5067382;28;20028;-77
2023/05/20 00:10:44;;;;;;;14.45;3.10;;;;;;;;;;5061943;28;20027;-79
2023/05/20 00:13:10;;;;;;;17.30;3.65;;;;;;;;;;5065298;28;20024;-77
2023/05/20 00:15:37;;;;;;;15.65;2.97;;;;;;;;;;5066051;28;20074;-79
2023/05/20 00:18:03;;;;;;;17.88;3.60;;;;;;;;;;5065914;28;20044;-74
2023/05/20 00:20:29;;;;;;;16.27;3.35;;;;;;;;;;5059723;28;20093;-77
2023/05/20 00:22:56;;;;;;;17.20;3.13;;;;;;;;;;5067110;28;20032;-78
2023/05/20 00:25:22;;;;;;;23.95;4.00;;;;;;;;;;5063137;28;20028;-75
2023/05/20 00:27:48;;;;;;;15.77;5.07;;;;;;;;;;5072334;28;20017;-75
2023/05/20 00:30:14;;;;;;;14.48;3.38;;;;;;;;;;5064639;28;20476;-77
2023/05/20 00:32:40;;;;;;;18.58;4.25;;;;;;;;;;5065439;28;20070;-76
2023/05/20 00:35:08;;;;;;;12.68;3.40;;;;;;;;;;5065597;28;20032;-78
2023/05/20 00:37:34;;;;;;;18.85;4.68;;;;;;;;;;5063180;28;20032;-77
2023/05/20 00:40:00;;;;;;;15.25;3.33;;;;;;;;;;5067756;28;20078;-75
2023/05/20 00:42:27;;;;;;;13.70;3.63;;;;;;;;;;5064454;28;20485;-79
2023/05/20 00:44:54;;;;;;;24.55;4.10;;;;;;;;;;5057312;28;20020;-75
2023/05/20 00:47:21;;;;;;;16.63;3.15;;;;;;;;;;5061302;28;20031;-78
2023/05/20 00:49:50;;;;;;;13.48;3.30;;;;;;;;;;5064450;28;20109;-77
2023/05/20 00:52:17;;;;;;;15.93;3.30;;;;;;;;;;5065745;28;20104;-78
2023/05/20 00:54:43;;;;;;;16.65;3.72;;;;;;;;;;5062996;28;20421;-78
2023/05/20 00:57:09;;;;;;;16.48;2.90;;;;;;;;;;5063226;28;20405;-77
2023/05/20 00:59:36;;;;;;;16.55;4.05;;;;;;;;;;5064739;28;20532;-77
2023/05/20 01:02:03;;;;;;;14.88;3.45;;;;;;;;;;5063226;28;20028;-75
2023/05/20 01:04:30;;;;;;;13.15;3.30;;;;;;;;;;5064467;28;20020;-78
2023/05/20 01:06:56;;;;;;;14.85;2.90;;;;;;;;;;5067067;28;20123;-76
2023/05/20 01:09:23;;;;;;;18.33;2.67;;;;;;;;;;5068389;28;20016;-79
2023/05/20 01:11:58;;;;;;;13.88;2.90;;;;;;;;;;5064046;28;20752;-79
2023/05/20 01:14:25;;;;;;;14.75;4.18;;;;;;;;;;5061050;28;20576;-76
2023/05/20 01:16:53;;;;;;;18.33;3.28;;;;;;;;;;5063145;28;21546;-76
2023/05/20 01:19:46;;;;;;;14.13;3.25;;;;;;;;;;5061909;28;20028;-75
2023/05/20 01:22:14;;;;;;;16.65;4.30;;;;;;;;;;5062687;28;20049;-78
2023/05/20 01:24:47;;;;;;;12.70;3.67;;;;;;;;;;5064343;28;20103;-80
2023/05/20 01:27:13;;;;;;;15.13;3.67;;;;;;;;;;5064109;28;20027;-78
2023/05/20 01:29:40;;;;;;;12.90;4.13;;;;;;;;;;5063940;28;20023;-76
2023/05/20 01:32:09;;;;;;;12.65;2.83;;;;;;;;;;5065107;28;20025;-76
2023/05/20 01:34:35;;;;;;;10.70;3.60;;;;;;;;;;5062205;28;20025;-74
2023/05/20 01:37:04;;;;;;;19.40;4.30;;;;;;;;;;5068210;28;20021;-78
2023/05/20 01:39:31;;;;;;;14.57;3.38;;;;;;;;;;5064680;28;20020;-76
2023/05/20 01:41:58;;;;;;;14.30;3.47;;;;;;;;;;5063976;28;20104;-79
2023/05/20 01:44:24;;;;;;;14.60;2.83;;;;;;;;;;5061666;28;20570;-76
2023/05/20 01:46:50;;;;;;;17.50;4.00;;;;;;;;;;5062424;28;20016;-79
2023/05/20 01:49:16;;;;;;;11.90;2.55;;;;;;;;;;5071987;28;20044;-78
2023/05/20 01:51:42;;;;;;;14.35;3.67;;;;;;;;;;5061306;28;20029;-78
2023/05/20 01:54:08;;;;;;;15.20;3.05;;;;;;;;;;5064494;28;20061;-78
2023/05/20 01:56:35;;;;;;;12.23;3.38;;;;;;;;;;5055291;28;20044;-78
2023/05/20 01:59:01;;;;;;;16.38;3.15;;;;;;;;;;5071108;28;20044;-79
2023/05/20 02:01:27;;;;;;;12.48;3.17;;;;;;;;;;5066401;28;20040;-79
2023/05/20 02:03:53;;;;;;;16.27;3.70;;;;;;;;;;5064967;28;20100;-78
2023/05/20 02:06:19;;;;;;;16.30;2.80;;;;;;;;;;5060414;28;20429;-73
2023/05/20 02:08:45;;;;;;;11.60;3.17;;;;;;;;;;5063234;28;20021;-73
2023/05/20 02:11:12;;;;;;;12.40;2.80;;;;;;;;;;5061410;28;20101;-75
2023/05/20 02:13:38;;;;;;;13.55;3.97;;;;;;;;;;5064423;28;20017;-74
2023/05/20 02:16:05;;;;;;;13.55;3.20;;;;;;;;;;5062730;28;20055;-74
2023/05/20 02:18:31;;;;;;;10.73;2.88;;;;;;;;;;5063769;28;20112;-79
2023/05/20 02:21:02;;;;;;;11.55;2.92;;;;;;;;;;5059783;28;20116;-73
2023/05/20 02:23:29;;;;;;;13.98;2.75;;;;;;;;;;5064395;28;20294;-73
2023/05/20 02:25:55;;;;;;;12.18;3.13;;;;;;;;;;5059389;28;20037;-74
2023/05/20 02:28:21;;;;;;;9.02;2.55;;;;;;;;;;5063985;28;20024;-73
2023/05/20 02:30:49;;;;;;;10.80;3.22;;;;;;;;;;5057558;28;20112;-74
2023/05/20 02:33:16;;;;;;;8.50;2.53;;;;;;;;;;5064348;28;20020;-78
2023/05/20 02:35:42;;;;;;;7.65;2.60;;;;;;;;;;5066974;28;20062;-73
2023/05/20 02:38:08;;;;;;;11.27;2.78;;;;;;;;;;5061983;28;20393;-73
2023/05/20 02:40:34;;;;;;;10.38;3.28;;;;;;;;;;5067714;28;20025;-78
2023/05/20 02:43:00;;;;;;;14.85;3.30;;;;;;;;;;5062501;28;20020;-74
2023/05/20 02:45:27;;;;;;;9.30;2.80;;;;;;;;;;5067315;28;20024;-73
2023/05/20 02:47:53;;;;;;;12.20;2.45;;;;;;;;;;5062803;28;20013;-73
2023/05/20 02:50:19;;;;;;;12.57;3.95;;;;;;;;;;5061350;28;20019;-73
2023/05/20 02:52:46;;;;;;;11.88;3.88;;;;;;;;;;5064358;28;20024;-75
2023/05/20 02:55:12;;;;;;;12.23;3.55;;;;;;;;;;5059442;28;20024;-74
2023/05/20 02:57:38;;;;;;;13.23;3.47;;;;;;;;;;5060244;28;20484;-73
2023/05/20 03:00:06;;;;;;;15.90;3.90;;;;;;;;;;5059520;28;20490;-74
2023/05/20 03:02:32;;;;;;;13.93;4.45;;;;;;;;;;5063540;28;20027;-73
2023/05/20 03:04:58;;;;;;;15.75;3.50;;;;;;;;;;5062371;28;20025;-73
2023/05/20 03:07:25;;;;;;;14.23;2.85;;;;;;;;;;5063415;28;20841;-76
2023/05/20 03:09:51;;;;;;;10.68;2.83;;;;;;;;;;5059945;28;20040;-74
2023/05/20 03:12:18;;;;;;;16.23;3.30;;;;;;;;;;5063303;28;20405;-73
2023/05/20 03:14:44;;;;;;;14.27;3.33;;;;;;;;;;5061179;28;20031;-73
2023/05/20 03:17:11;;;;;;;12.18;3.35;;;;;;;;;;5061511;28;20490;-73
2023/05/20 03:19:37;;;;;;;14.65;2.75;;;;;;;;;;5059820;28;20380;-79
2023/05/20 03:22:03;;;;;;;12.23;2.72;;;;;;;;;;5057789;28;20511;-75
2023/05/20 03:24:29;;;;;;;13.18;3.40;;;;;;;;;;5063196;28;20020;-79
2023/05/20 03:26:55;;;;;;;11.88;2.55;;;;;;;;;;5068248;28;20028;-77
2023/05/20 03:29:22;;;;;;;10.68;2.75;;;;;;;;;;5063212;28;20027;-79
2023/05/20 03:31:49;;;;;;;8.27;2.80;;;;;;;;;;5062477;28;20033;-78
2023/05/20 03:34:15;;;;;;;10.88;2.90;;;;;;;;;;5061624;28;20048;-77
2023/05/20 03:36:41;;;;;;;12.75;2.65;;;;;;;;;;5062753;28;20088;-77
2023/05/20 03:39:07;;;;;;;16.27;2.65;;;;;;;;;;5064283;28;20453;-77
2023/05/20 03:41:34;;;;;;;9.38;2.28;;;;;;;;;;5059887;28;20039;-74
2023/05/20 03:44:00;;;;;;;11.38;2.63;;;;;;;;;;5059750;28;20017;-78
2023/05/20 03:46:26;;;;;;;9.73;2.30;;;;;;;;;;5060438;28;20032;-75
2023/05/20 03:48:52;;;;;;;8.95;2.92;;;;;;;;;;5061867;28;20040;-79
2023/05/20 03:51:18;;;;;;;13.82;2.60;;;;;;;;;;5062036;28;20094;-74
2023/05/20 03:53:44;;;;;;;9.20;2.65;;;;;;;;;;5057873;28;20024;-75
2023/05/20 03:56:11;;;;;;;11.35;2.83;;;;;;;;;;5060554;28;20035;-73
2023/05/20 03:58:37;;;;;;;8.40;2.03;;;;;;;;;;5064856;28;20051;-74
2023/05/20 04:01:03;;;;;;;9.23;2.50;;;;;;;;;;5061930;28;20214;-77
2023/05/20 04:03:30;;;;;;;10.88;2.78;;;;;;;;;;5063199;28;20023;-75
2023/05/20 04:05:56;;;;;;;11.40;2.45;;;;;;;;;;5061248;28;20036;-75
2023/05/20 04:08:24;;;;;;;12.23;2.33;;;;;;;;;;5064593;28;20056;-75
2023/05/20 04:10:51;;;;;;;10.30;2.67;;;;;;;;;;5061939;28;20020;-76
2023/05/20 04:13:17;;;;;;;9.52;2.35;;;;;;;;;;5063659;28;20013;-79
2023/05/20 04:15:43;;;;;;;11.13;2.70;;;;;;;;;;5059425;28;20155;-77
2023/05/20 04:18:09;;;;;;;10.13;2.40;;;;;;;;;;5064644;28;20033;-74
2023/05/20 04:20:35;;;;;;;10.25;2.17;;;;;;;;;;5054959;28;20068;-75
2023/05/20 04:23:02;;;;;;;10.13;2.75;;;;;;;;;;5062133;28;20036;-73
2023/05/20 04:25:28;;;;;;;11.40;3.25;;;;;;;;;;5058083;28;20082;-74
2023/05/20 04:27:56;;;;;;;13.38;3.13;;;;;;;;;;5060766;28;20020;-74
2023/05/20 04:30:22;;;;;;;16.05;3.28;;;;;;;;;;5062026;28;20028;-73
2023/05/20 04:32:49;;;;;;;12.57;3.50;;;;;;;;;;5064543;28;20020;-73
2023/05/20 04:35:16;;;;;;;18.80;4.40;;;;;;;;;;5059669;28;20032;-73
2023/05/20 04:37:43;;;;;;;18.45;3.53;;;;;;;;;;5062497;28;20021;-74
2023/05/20 04:40:11;;;;;;;17.50;3.10;;;;;;;;;;5064438;28;20049;-80
2023/05/20 04:42:37;;;;;;;12.57;3.33;;;;;;;;;;5060152;28;20062;-74
2023/05/20 04:45:04;;;;;;;10.93;3.55;;;;;;;;;;5058134;28;20341;-74
2023/05/20 04:47:31;;;;;;;13.20;3.65;;;;;;;;;;5063595;28;20020;-73
2023/05/20 04:49:57;;;;;;;21.88;4.35;;;;;;;;;;5059413;28;20060;-74
2023/05/20 04:52:24;;;;;;;13.65;2.95;;;;;;;;;;5062755;28;20077;-73
2023/05/20 04:54:51;;;;;;;13.27;3.72;;;;;;;;;;5059145;28;20102;-73
2023/05/20 04:57:21;;;;;;;12.25;3.10;;;;;;;;;;5061141;28;20024;-73
2023/05/20 04:59:47;;;;;;;10.48;2.92;;;;;;;;;;5060984;28;20128;-73
2023/05/20 05:02:13;;;;;;;17.83;3.90;;;;;;;;;;5060938;28;20626;-74
2023/05/20 05:04:40;;;;;;;14.60;3.60;;;;;;;;;;5058113;28;20025;-73
2023/05/20 05:07:06;;;;;;;19.73;3.65;;;;;;;;;;5060907;28;20028;-76
2023/05/20 05:09:32;;;;;;;17.33;3.10;;;;;;;;;;5062561;28;20063;-73
2023/05/20 05:11:58;;;;;;;12.07;3.53;;;;;;;;;;5060303;28;20021;-73
2023/05/20 05:14:24;;;;;;;16.67;3.83;;;;;;;;;;5062089;28;20115;-73
2023/05/20 05:16:51;;;;;;;13.57;3.30;;;;;;;;;;5060582;28;20622;-73
2023/05/20 05:19:17;;;;;;;16.98;3.13;;;;;;;;;;5062359;28;20645;-73
2023/05/20 05:21:43;;;;;;;15.00;3.45;;;;;;;;;;5059321;28;20481;-73
2023/05/20 05:24:09;;;;;;;13.30;4.03;;;;;;;;;;5063470;28;20540;-81
2023/05/20 05:26:35;;;;;;;15.15;3.30;;;;;;;;;;5058573;28;20036;-73
2023/05/20 05:29:02;;;;;;;16.52;3.85;;;;;;;;;;5056705;28;20082;-73
2023/05/20 05:31:28;;;;;;;18.70;4.38;;;;;;;;;;5053908;28;20025;-74
2023/05/20 05:33:54;;;;;;;22.63;5.00;;;;;;;;;;5060196;28;20047;-76
2023/05/20 05:36:20;;;;;;;15.07;3.92;;;;;;;;;;5056314;28;20085;-76
2023/05/20 05:38:47;;;;;;;8.75;3.95;;;;;;;;;;5057864;28;20557;-76
2023/05/20 05:41:13;;;;;;;17.08;3.90;;;;;;;;;;5062104;28;20075;-75
2023/05/20 05:43:39;;;;;;;18.70;3.45;;;;;;;;;;5055171;28;20575;-73
2023/05/20 05:46:05;;;;;;;17.17;3.88;;;;;;;;;;5057609;28;20029;-77
2023/05/20 05:48:31;;;;;;;15.38;3.60;;;;;;;;;;5061126;28;20077;-75
2023/05/20 05:50:58;;;;;;;15.00;3.60;;;;;;;;;;5058355;28;20102;-75
2023/05/20 05:53:24;;;;;;;15.65;4.10;;;;;;;;;;5061200;28;20028;-76
2023/05/20 05:55:50;;;;;;;19.90;4.28;;;;;;;;;;5055104;28;20024;-76
2023/05/20 05:58:16;;;;;;;13.80;3.95;;;;;;;;;;5057937;28;20085;-76
2023/05/20 06:00:42;;;;;;;17.88;3.90;;;;;;;;;;5060297;28;20508;-76
2023/05/20 06:03:08;;;;;;;18.90;4.55;;;;;;;;;;5055701;28;20028;-76
2023/05/20 06:05:35;;;;;;;14.95;3.72;;;;;;;;;;5063819;28;20090;-76
2023/05/20 06:08:01;;;;;;;20.23;4.25;;;;;;;;;;5055602;28;20181;-76
2023/05/20 06:10:27;;;;;;;19.23;4.30;;;;;;;;;;5060249;28;20020;-77
2023/05/20 06:12:53;;;;;;;18.80;4.25;;;;;;;;;;5055723;28;20024;-76
2023/05/20 06:15:19;;;;;;;18.50;4.75;;;;;;;;;;5061299;28;20021;-76
2023/05/20 06:17:46;;;;;;;16.27;5.65;;;;;;;;;;5062481;28;20027;-76
2023/05/20 06:20:12;;;;;;;18.75;4.53;;;;;;;;;;5058405;28;20039;-77
2023/05/20 06:22:38;;;;;;;18.95;4.60;;;;;;;;;;5066328;28;20475;-76
2023/05/20 06:25:05;;;;;;;27.33;5.10;;;;;;;;;;5063658;28;20039;-76
2023/05/20 06:27:31;;;;;;;12.93;3.80;;;;;;;;;;5060747;28;20365;-76
2023/05/20 06:29:57;;;;;;;19.02;5.10;;;;;;;;;;5060276;28;20035;-75
2023/05/20 06:32:23;;;;;;;20.45;4.28;;;;;;;;;;5060793;28;20032;-75
2023/05/20 06:34:49;;;;;;;12.13;4.15;;;;;;;;;;5061446;28;20020;-75
2023/05/20 06:37:15;;;;;;;18.17;4.50;;;;;;;;;;5056993;28;20365;-75
2023/05/20 06:39:42;;;;;;;10.90;3.58;;;;;;;;;;5057339;28;20103;-76
2023/05/20 06:42:08;;;;;;;15.02;4.50;;;;;;;;;;5059408;28;20040;-75
2023/05/20 06:44:34;;;;;;;14.20;4.78;;;;;;;;;;5062289;28;20371;-76
2023/05/20 06:47:00;;;;;;;12.43;4.15;;;;;;;;;;5060815;28;20039;-75
2023/05/20 06:49:27;;;;;;;15.13;4.28;;;;;;;;;;5062053;28;20016;-75
2023/05/20 06:51:53;;;;;;;22.02;4.35;;;;;;;;;;5060681;28;20033;-76
2023/05/20 06:54:20;;;;;;;14.48;4.35;;;;;;;;;;5060073;28;20017;-75
2023/05/20 06:56:46;;;;;;;19.83;4.38;;;;;;;;;;5065870;28;20040;-76
2023/05/20 06:59:13;;;;;;;10.82;3.80;;;;;;;;;;5057829;28;20095;-75
2023/05/20 07:01:39;;;;;;;15.40;4.45;;;;;;;;;;5060863;28;20039;-75
2023/05/20 07:04:05;;;;;;;9.90;4.18;;;;;;;;;;5060527;28;20158;-75
2023/05/20 07:06:32;;;;;;;13.88;4.28;;;;;;;;;;5058656;28;20126;-75
2023/05/20 07:08:58;;;;;;;14.82;4.10;;;;;;;;;;5060646;28;20350;-75
2023/05/20 07:11:24;;;;;;;13.05;4.13;;;;;;;;;;5059849;28;20037;-74
2023/05/20 07:13:50;;;;;;;17.30;4.18;;;;;;;;;;5061931;28;20401;-75
2023/05/20 07:16:17;;;;;;;15.68;5.45;;;;;;;;;;5058431;28;20025;-75
2023/05/20 07:18:43;;;;;;;19.40;7.85;;;;;;;;;;5061577;28;20020;-75
2023/05/20 07:21:09;;;;;;;16.83;6.47;;;;;;;;;;5058292;28;20201;-76
2023/05/20 07:23:35;;;;;;;20.20;6.65;;;;;;;;;;5056590;28;20025;-76
2023/05/20 07:26:02;;;;;;;21.33;5.50;;;;;;;;;;5064470;28;20057;-75
2023/05/20 07:28:28;;;;;;;25.35;5.60;;;;;;;;;;5055764;28;20021;-75
2023/05/20 07:30:55;;;;;;;29.92;6.00;;;;;;;;;;5059616;28;20451;-75
2023/05/20 07:33:22;;;;;;;25.73;6.53;;;;;;;;;;5055409;28;20036;-77
2023/05/20 07:35:48;;;;;;;21.05;5.63;;;;;;;;;;5067388;28;20030;-76
2023/05/20 07:38:14;;;;;;;33.83;6.53;;;;;;;;;;5057857;28;20104;-76
2023/05/20 07:40:40;;;;;;;29.70;6.05;;;;;;;;;;5062297;28;20033;-76
2023/05/20 07:43:09;;;;;;;24.95;6.72;;;;;;;;;;5056957;28;20032;-76
2023/05/20 07:45:36;;;;;;;31.67;6.55;;;;;;;;;;5059887;28;20021;-77
2023/05/20 07:48:02;;;;;;;34.47;7.18;;;;;;;;;;5055653;28;20131;-78
2023/05/20 07:50:28;;;;;;;49.13;7.82;;;;;;;;;;5058656;28;20029;-78
2023/05/20 07:52:55;;;;;;;22.73;6.28;;;;;;;;;;5059868;28;20055;-77
2023/05/20 07:55:21;;;;;;;40.15;7.30;;;;;;;;;;5056934;28;20691;-76
2023/05/20 07:57:47;;;;;;;37.88;6.63;;;;;;;;;;5059119;28;20027;-77
2023/05/20 08:00:13;;;;;;;29.80;6.95;;;;;;;;;;5060874;28;20123;-77
2023/05/20 08:02:40;;;;;;;36.05;7.15;;;;;;;;;;5057314;28;20043;-77
2023/05/20 08:05:06;;;;;;;30.58;6.40;;;;;;;;;;5061192;28;20103;-77
2023/05/20 08:07:32;;;;;;;34.15;6.40;;;;;;;;;;5058165;28;20024;-77
2023/05/20 08:09:59;;;;;;;30.50;7.07;;;;;;;;;;5062026;28;20024;-77
2023/05/20 08:12:26;;;;;;;23.33;6.05;;;;;;;;;;5061121;28;20117;-77
2023/05/20 08:14:53;;;;;;;34.38;7.18;;;;;;;;;;5064754;28;20023;-77
2023/05/20 08:17:19;;;;;;;41.83;7.20;;;;;;;;;;5058799;28;20024;-77
2023/05/20 08:19:45;;;;;;;32.15;7.05;;;;;;;;;;5061258;28;20036;-77
2023/05/20 08:22:12;;;;;;;38.25;7.80;;;;;;;;;;5057468;28;20610;-77
2023/05/20 08:24:38;;;;;;;32.45;6.95;;;;;;;;;;5062020;28;20016;-77
2023/05/20 08:27:04;;;;;;;26.40;6.95;;;;;;;;;;5060999;28;20724;-77
2023/05/20 08:29:30;;;;;;;51.42;8.85;;;;;;;;;;5063111;28;20086;-77
2023/05/20 08:31:57;;;;;;;28.33;7.55;;;;;;;;;;5058296;28;20063;-78
2023/05/20 08:34:23;;;;;;;30.58;7.28;;;;;;;;;;5064661;28;20039;-77
2023/05/20 08:36:49;;;;;;;32.25;6.95;;;;;;;;;;5062155;28;20054;-77
2023/05/20 08:39:15;;;;;;;36.50;8.63;;;;;;;;;;5064326;28;20081;-77
2023/05/20 08:41:41;;;;;;;30.33;7.68;;;;;;;;;;5059929;28;20393;-77
2023/05/20 08:44:10;;;;;;;33.45;8.35;;;;;;;;;;5064268;28;20032;-77
2023/05/20 08:46:36;;;;;;;25.55;8.10;;;;;;;;;;5059945;28;20032;-77
2023/05/20 08:49:03;;;;;;;38.88;7.97;;;;;;;;;;5064034;28;20021;-77
2023/05/20 08:51:29;;;;;;;30.40;7.60;;;;;;;;;;5061111;28;20028;-77
2023/05/20 08:53:55;;;;;;;43.30;8.07;;;;;;;;;;5065449;28;20025;-77
2023/05/20 08:56:22;;;;;;;25.17;7.15;;;;;;;;;;5059045;28;20025;-77
2023/05/20 08:58:48;;;;;;;46.20;9.27;;;;;;;;;;5063401;28;20548;-77
2023/05/20 09:01:14;;;;;;;38.40;8.00;;;;;;;;;;5060565;28;20040;-76
2023/05/20 09:03:40;;;;;;;39.92;7.45;;;;;;;;;;5063661;28;20021;-77
2023/05/20 09:06:08;;;;;;;39.58;8.70;;;;;;;;;;5059768;28;20028;-77
2023/05/20 09:08:35;;;;;;;28.08;8.68;;;;;;;;;;5058347;28;20523;-77
2023/05/20 09:11:01;;;;;;;28.38;7.57;;;;;;;;;;5060340;28;20100;-77
2023/05/20 09:13:29;;;;;;;42.00;9.15;;;;;;;;;;5060258;28;20027;-77
2023/05/20 09:15:55;;;;;;;27.45;7.65;;;;;;;;;;5069333;28;20060;-77
2023/05/20 09:18:22;;;;;;;36.35;8.73;;;;;;;;;;5059091;28;20862;-77
2023/05/20 09:20:51;;;;;;;35.08;8.75;;;;;;;;;;5060827;28;20036;-77
2023/05/20 09:23:22;;;;;;;29.65;7.40;;;;;;;;;;5052728;28;20043;-76
2023/05/20 09:25:51;;;;;;;32.40;7.57;;;;;;;;;;5060616;28;20065;-77
2023/05/20 09:28:23;;;;;;;29.13;7.45;;;;;;;;;;5061173;28;20033;-77
2023/05/20 09:30:53;;;;;;;31.08;7.90;;;;;;;;;;5061703;28;20024;-77
2023/05/20 09:33:19;;;;;;;30.73;7.65;;;;;;;;;;5061256;28;20032;-77
2023/05/20 09:35:46;;;;;;;28.65;8.55;;;;;;;;;;5061355;28;20592;-77
2023/05/20 09:38:14;;;;;;;32.40;9.73;;;;;;;;;;5061838;28;20123;-77
2023/05/20 09:40:41;;;;;;;35.58;7.78;;;;;;;;;;5063111;28;20103;-77
2023/05/20 09:43:09;;;;;;;31.90;9.02;;;;;;;;;;5055013;28;20480;-77
2023/05/20 09:45:37;;;;;;;29.38;7.43;;;;;;;;;;5059145;28;20021;-77
2023/05/20 09:48:07;;;;;;;32.00;8.65;;;;;;;;;;5055273;28;20052;-77
2023/05/20 09:50:34;;;;;;;27.80;7.32;;;;;;;;;;5062383;28;20031;-76
2023/05/20 09:53:04;;;;;;;26.17;7.65;;;;;;;;;;5059693;28;20038;-77
2023/05/20 09:55:30;;;;;;;36.63;7.15;;;;;;;;;;5062502;28;20023;-76
2023/05/20 09:57:58;;;;;;;22.23;7.32;;;;;;;;;;5058722;28;20020;-77
2023/05/20 10:00:24;;;;;;;27.10;6.95;;;;;;;;;;5062159;28;20107;-77
2023/05/20 10:02:51;;;;;;;32.42;7.75;;;;;;;;;;5055497;28;20021;-77
2023/05/20 10:05:17;;;;;;;25.92;7.68;;;;;;;;;;5060784;28;20025;-77
2023/05/20 10:07:43;;;;;;;27.15;7.97;;;;;;;;;;5056605;28;20780;-77
2023/05/20 10:10:28;;;;;;;33.95;8.63;;;;;;;;;;5070688;28;20032;-77
2023/05/20 10:13:04;;;;;;;28.63;7.05;;;;;;;;;;5065083;28;20020;-77
2023/05/20 10:15:43;;;;;;;30.23;7.70;;;;;;;;;;5061971;28;20029;-77
2023/05/20 10:18:25;;;;;;;33.22;8.57;;;;;;;;;;5061111;28;20040;-77
2023/05/20 10:20:51;;;;;;;28.58;8.02;;;;;;;;;;5059808;28;20021;-77
2023/05/20 10:23:21;;;;;;;29.77;7.20;;;;;;;;;;5067707;28;20025;-77
2023/05/20 10:25:52;;;;;;;24.65;6.93;;;;;;;;;;5058935;28;20025;-77
2023/05/20 10:28:27;;;;;;;36.47;8.52;;;;;;;;;;5059773;28;20833;-77
2023/05/20 10:30:53;;;;;;;29.65;7.13;;;;;;;;;;5060038;28;20111;-77
2023/05/20 10:33:19;;;;;;;25.27;7.05;;;;;;;;;;5058896;28;20126;-77
2023/05/20 10:35:52;;;;;;;30.15;7.53;;;;;;;;;;5061404;28;20112;-76
2023/05/20 10:38:19;;;;;;;20.58;7.28;;;;;;;;;;5060736;28;20103;-77
2023/05/20 10:40:45;;;;;;;24.15;7.05;;;;;;;;;;5061939;28;20072;-77
2023/05/20 10:43:38;;;;;;;25.35;6.63;;;;;;;;;;5060092;28;20046;-77
2023/05/20 10:46:04;;;;;;;28.40;6.90;;;;;;;;;;5060160;28;20056;-77
2023/05/20 10:48:31;;;;;;;25.30;7.03;;;;;;;;;;5061267;28;20024;-77
2023/05/20 10:51:04;;;;;;;25.27;7.43;;;;;;;;;;5063472;28;20049;-77
2023/05/20 10:53:38;;;;;;;20.67;6.63;;;;;;;;;;5065057;28;20058;-77
2023/05/20 10:56:05;;;;;;;21.95;6.50;;;;;;;;;;5062651;28;20061;-77
2023/05/20 10:58:36;;;;;;;18.00;6.07;;;;;;;;;;5055557;28;20017;-76
2023/05/20 11:01:02;;;;;;;;;;;;;;;;;;5061552;28;20507;-77
2023/05/20 11:03:30;;;;;;;21.58;5.53;;;;;;;;;;5057197;28;19982;-77
2023/05/20 11:05:56;;;;;;;16.13;4.97;;;;;;;;;;5060457;28;20511;-77
2023/05/20 11:08:22;;;;;;;17.42;5.85;;;;;;;;;;5059323;28;20170;-77
2023/05/20 11:10:48;;;;;;;20.25;5.72;;;;;;;;;;5059735;28;20040;-77
2023/05/20 11:13:15;;;;;;;24.38;5.53;;;;;;;;;;5060635;28;20042;-77
2023/05/20 11:15:42;;;;;;;21.45;5.35;;;;;;;;;;5061119;28;20139;-77
2023/05/20 11:18:11;;;;;;;20.60;5.55;;;;;;;;;;5054866;28;20038;-77
2023/05/20 11:20:38;;;;;;;17.50;4.53;;;;;;;;;;5058946;28;20036;-77
2023/05/20 11:23:05;;;;;;;18.48;5.03;;;;;;;;;;5055916;28;20047;-77
2023/05/20 11:25:32;;;;;;;16.88;4.82;;;;;;;;;;5061147;28;20507;-77
2023/05/20 11:27:59;;;;;;;12.27;3.92;;;;;;;;;;5056438;28;20059;-77
2023/05/20 11:30:25;;;;;;;15.50;4.78;;;;;;;;;;5059195;28;20013;-77
2023/05/20 11:33:01;;;;;;;20.52;5.82;;;;;;;;;;5057802;28;20115;-77
2023/05/20 11:35:29;;;;;;;15.73;4.55;;;;;;;;;;5060956;28;20111;-77
2023/05/20 11:38:02;;;;;;;17.23;3.88;;;;;;;;;;5059958;28;20484;-77
2023/05/20 11:40:30;;;;;;;17.27;4.43;;;;;;;;;;5060466;28;20025;-77
2023/05/20 11:42:57;;;;;;;13.10;3.58;;;;;;;;;;5060142;28;20059;-77
2023/05/20 11:45:24;;;;;;;14.43;5.32;;;;;;;;;;5057145;28;20040;-77
2023/05/20 11:47:59;;;;;;;25.33;4.72;;;;;;;;;;5062417;28;20796;-77
2023/05/20 11:50:25;;;;;;;22.45;4.93;;;;;;;;;;5057540;28;20104;-77
2023/05/20 11:52:57;;;;;;;15.38;4.30;;;;;;;;;;5064389;28;20103;-77
2023/05/20 11:55:23;;;;;;;21.10;4.63;;;;;;;;;;5070666;28;20032;-77
2023/05/20 11:57:50;;;;;;;20.38;4.15;;;;;;;;;;5062555;28;20501;-77
2023/05/20 12:00:17;;;;;;;24.30;4.85;;;;;;;;;;5069763;28;20056;-78
2023/05/20 12:02:43;;;;;;;24.88;5.03;;;;;;;;;;5060104;28;20411;-77
2023/05/20 12:05:10;;;;;;;16.67;4.68;;;;;;;;;;5064811;28;20032;-77
2023/05/20 12:07:37;;;;;;;12.73;4.50;;;;;;;;;;5061554;28;20412;-76
2023/05/20 12:10:03;;;;;;;22.90;5.43;;;;;;;;;;5063831;28;20758;-77
2023/05/20 12:12:30;;;;;;;27.15;5.75;;;;;;;;;;5060288;28;20052;-78
2023/05/20 12:14:56;;;;;;;27.13;5.10;;;;;;;;;;5060919;28;20086;-76
2023/05/20 12:17:22;;;;;;;35.28;6.22;;;;;;;;;;5059454;28;20016;-77
2023/05/20 12:19:49;;;;;;;26.52;5.32;;;;;;;;;;5060817;28;20027;-77
2023/05/20 12:22:15;;;;;;;32.13;7.18;;;;;;;;;;5062206;28;20561;-78
2023/05/20 12:24:41;;;;;;;26.50;6.32;;;;;;;;;;5062977;28;20520;-77
2023/05/20 12:27:07;;;;;;;18.80;4.78;;;;;;;;;;5057699;28;20032;-78
2023/05/20 12:29:33;;;;;;;18.83;5.93;;;;;;;;;;5059765;28;20112;-77
2023/05/20 12:32:00;;;;;;;27.05;6.38;;;;;;;;;;5060570;28;20052;-77
2023/05/20 12:34:26;;;;;;;64.90;8.55;;;;;;;;;;5071773;28;20021;-74
2023/05/20 12:36:52;;;;;;;30.60;5.47;;;;;;;;;;5062510;28;20018;-74
2023/05/20 12:39:18;;;;;;;33.55;5.57;;;;;;;;;;5061536;28;20032;-77
2023/05/20 12:41:45;;;;;;;27.00;6.60;;;;;;;;;;5061039;28;20043;-77
2023/05/20 12:44:11;;;;;;;20.15;4.95;;;;;;;;;;5062988;28;20025;-78
2023/05/20 12:46:37;;;;;;;27.92;5.15;;;;;;;;;;5061503;28;20155;-77
2023/05/20 12:49:03;;;;;;;25.20;5.50;;;;;;;;;;5058091;28;20029;-77
2023/05/20 12:51:30;;;;;;;37.85;6.75;;;;;;;;;;5062151;28;20024;-78
2023/05/20 12:53:56;;;;;;;24.20;6.00;;;;;;;;;;5058405;28;20032;-78
2023/05/20 12:56:24;;;;;;;42.10;5.93;;;;;;;;;;5060053;28;20029;-78
2023/05/20 12:58:50;;;;;;;48.10;7.15;;;;;;;;;;5060147;28;20028;-77
2023/05/20 13:01:16;;;;;;;31.50;5.47;;;;;;;;;;5060810;28;20135;-78
2023/05/20 13:03:42;;;;;;;28.67;5.93;;;;;;;;;;5061854;28;20031;-77
2023/05/20 13:06:08;;;;;;;25.15;5.70;;;;;;;;;;5058651;28;20043;-78
2023/05/20 13:08:35;;;;;;;24.52;5.95;;;;;;;;;;5061422;28;20017;-75
2023/05/20 13:11:01;;;;;;;23.38;5.70;;;;;;;;;;5069236;28;20020;-77
2023/05/20 13:13:27;;;;;;;50.42;6.72;;;;;;;;;;5061911;28;20035;-77
2023/05/20 13:15:54;;;;;;;24.77;5.70;;;;;;;;;;5065640;28;20032;-78
2023/05/20 13:18:20;;;;;;;25.38;5.70;;;;;;;;;;5062428;28;20016;-77
2023/05/20 13:20:46;;;;;;;25.83;5.63;;;;;;;;;;5059251;28;20510;-77
2023/05/20 13:23:13;;;;;;;24.83;5.80;;;;;;;;;;5060242;28;20032;-78
2023/05/20 13:25:39;;;;;;;22.38;5.38;;;;;;;;;;5058854;28;20384;-77
2023/05/20 13:28:06;;;;;;;35.88;6.55;;;;;;;;;;5056089;28;20043;-77
2023/05/20 13:30:32;;;;;;;21.67;5.65;;;;;;;;;;5061519;28;20039;-78
2023/05/20 13:32:59;;;;;;;27.00;5.22;;;;;;;;;;5062925;28;20680;-78
2023/05/20 13:35:25;;;;;;;25.95;6.50;;;;;;;;;;5061140;28;20047;-77
2023/05/20 13:37:51;;;;;;;23.13;5.13;;;;;;;;;;5055660;28;20020;-78
2023/05/20 13:40:17;;;;;;;28.35;6.72;;;;;;;;;;5062650;28;20025;-77
2023/05/20 13:42:44;;;;;;;27.38;6.78;;;;;;;;;;5063334;28;20036;-78
2023/05/20 13:45:10;;;;;;;29.95;6.00;;;;;;;;;;5061600;28;20624;-78
2023/05/20 13:47:36;;;;;;;30.08;7.05;;;;;;;;;;5064548;28;20048;-77
2023/05/20 13:50:02;;;;;;;23.58;6.28;;;;;;;;;;5057932;28;20021;-78
2023/05/20 13:52:28;;;;;;;26.75;6.75;;;;;;;;;;5056818;28;20127;-78
2023/05/20 13:54:55;;;;;;;24.73;6.50;;;;;;;;;;5060787;28;20035;-77
2023/05/20 13:57:21;;;;;;;33.85;7.30;;;;;;;;;;5058032;28;20123;-78
2023/05/20 13:59:47;;;;;;;28.73;6.43;;;;;;;;;;5061043;28;20099;-78
2023/05/20 14:02:13;;;;;;;25.02;7.28;;;;;;;;;;5059185;28;20155;-78
2023/05/20 14:04:43;;;;;;;34.38;7.70;;;;;;;;;;5065336;28;20025;-77
2023/05/20 14:07:09;;;;;;;31.27;7.28;;;;;;;;;;5059219;28;20021;-78
2023/05/20 14:09:35;;;;;;;32.00;7.60;;;;;;;;;;5062264;28;20036;-77
2023/05/20 14:12:02;;;;;;;28.42;6.35;;;;;;;;;;5058586;28;20943;-77
2023/05/20 14:14:28;;;;;;;28.23;7.38;;;;;;;;;;5060360;28;20032;-77
2023/05/20 14:16:54;;;;;;;26.48;7.45;;;;;;;;;;5058959;28;20024;-77
2023/05/20 14:19:21;;;;;;;32.10;6.32;;;;;;;;;;5060651;28;20028;-77
2023/05/20 14:21:47;;;;;;;30.35;5.90;;;;;;;;;;5055208;28;20041;-78
2023/05/20 14:24:13;;;;;;;24.63;6.35;;;;;;;;;;5069155;28;20028;-77
2023/05/20 14:26:39;;;;;;;27.02;6.82;;;;;;;;;;5053496;28;20111;-78
2023/05/20 14:29:05;;;;;;;30.45;7.05;;;;;;;;;;5053108;28;20082;-77